M I D A S
Marine Information and Data Acquisition System
Tripno 1285 of the Zeeleeuw from 2007-06-12 09:54:01 to 2007-06-12 15:31:28
Back to CruiseResearch ActivitiesStationsMapUnderway DataData graphs

EquipmentUnitsComment
TimeDGPSUTC
LatitudeDGPSDM.mWGS84
LongitudeDGPSDM.mWGS84
HeadingGyrodeg 
SOGDGPSknotsSpeed over ground
COGDGPSdegCourse over ground
DepthEcho soundermeters200 kHz
Missing or incorrect values are displayed as -999
Navigation data collected by the RV Zeeleeuw from 2007-06-12 07:08:21 to 2007-06-12 15:41:42
                                                                                    Next 1000 lines
Time Latitude Longitude Heading SOG COG Depth
2007-06-12 07:08:31 51°13.596 2°56.094 127.4 -999 85 -999
2007-06-12 07:08:36 51°13.596 2°56.094 127 0.1 239 -999
2007-06-12 07:08:41 51°13.597 2°56.094 126.7 0.1 318 -999
2007-06-12 07:08:46 51°13.597 2°56.094 126.4 0.1 288 -999
2007-06-12 07:08:51 51°13.597 2°56.094 126.1 0.1 316 -999
2007-06-12 07:08:56 51°13.597 2°56.094 125.7 0.1 316 -999
2007-06-12 07:09:01 51°13.597 2°56.094 125.6 -999 342 -999
2007-06-12 07:09:06 51°13.597 2°56.094 125.6 -999 328 -999
2007-06-12 07:09:11 51°13.597 2°56.094 125.6 -999 41 -999
2007-06-12 07:09:16 51°13.597 2°56.094 125.6 -999 187 -999
2007-06-12 07:09:21 51°13.597 2°56.094 125.6 -999 44 -999
2007-06-12 07:09:26 51°13.597 2°56.093 125.5 -999 283 -999
2007-06-12 07:09:31 51°13.597 2°56.093 125.4 -999 127 -999
2007-06-12 07:09:36 51°13.597 2°56.093 125.3 -999 149 -999
2007-06-12 07:09:41 51°13.597 2°56.093 125.3 -999 175 -999
2007-06-12 07:09:46 51°13.597 2°56.093 125.3 -999 110 -999
2007-06-12 07:09:51 51°13.597 2°56.093 125.3 -999 175 -999
2007-06-12 07:09:56 51°13.597 2°56.093 125.3 -999 15 -999
2007-06-12 07:10:01 51°13.597 2°56.093 125.3 -999 4 -999
2007-06-12 07:10:06 51°13.597 2°56.093 125.4 -999 168 -999
2007-06-12 07:10:11 51°13.597 2°56.093 125.4 -999 10 -999
2007-06-12 07:10:16 51°13.597 2°56.093 125.5 -999 173 -999
2007-06-12 07:10:21 51°13.597 2°56.094 125.5 -999 137 -999
2007-06-12 07:10:26 51°13.598 2°56.093 125.5 -999 341 -999
2007-06-12 07:10:31 51°13.598 2°56.093 125.5 -999 192 -999
2007-06-12 07:10:36 51°13.598 2°56.093 125.5 -999 317 -999
2007-06-12 07:10:41 51°13.598 2°56.093 125.5 -999 308 -999
2007-06-12 07:10:46 51°13.598 2°56.093 125.5 -999 276 -999
2007-06-12 07:10:51 51°13.598 2°56.093 125.5 -999 225 -999
2007-06-12 07:10:56 51°13.598 2°56.094 125.4 -999 333 -999
2007-06-12 07:11:01 51°13.598 2°56.094 125.2 -999 275 -999
2007-06-12 07:11:06 51°13.598 2°56.094 125.1 -999 209 -999
2007-06-12 07:11:11 51°13.598 2°56.094 125 0.1 328 -999
2007-06-12 07:11:16 51°13.598 2°56.094 125 -999 9 -999
2007-06-12 07:11:21 51°13.598 2°56.094 125 -999 148 -999
2007-06-12 07:11:26 51°13.598 2°56.094 125 -999 146 -999
2007-06-12 07:11:31 51°13.598 2°56.094 125 -999 158 -999
2007-06-12 07:11:36 51°13.598 2°56.094 125.2 -999 57 -999
2007-06-12 07:11:41 51°13.598 2°56.094 125.3 -999 103 -999
2007-06-12 07:11:46 51°13.598 2°56.094 125.4 -999 170 -999
2007-06-12 07:11:51 51°13.598 2°56.094 125.5 -999 165 -999
2007-06-12 07:11:56 51°13.598 2°56.094 125.6 -999 123 -999
2007-06-12 07:12:01 51°13.598 2°56.094 125.6 -999 89 -999
2007-06-12 07:12:06 51°13.598 2°56.094 125.6 -999 252 -999
2007-06-12 07:12:11 51°13.598 2°56.094 125.6 -999 278 -999
2007-06-12 07:12:16 51°13.598 2°56.095 125.6 -999 52 -999
2007-06-12 07:12:21 51°13.598 2°56.095 125.6 -999 24 -999
2007-06-12 07:12:26 51°13.598 2°56.095 125.5 -999 254 -999
2007-06-12 07:12:31 51°13.598 2°56.095 125.5 -999 18 -999
2007-06-12 07:12:36 51°13.598 2°56.095 125.5 -999 127 -999
2007-06-12 07:12:41 51°13.598 2°56.095 125.5 -999 45 -999
2007-06-12 07:12:46 51°13.598 2°56.095 125.5 -999 303 -999
2007-06-12 07:12:51 51°13.598 2°56.095 125.5 -999 174 -999
2007-06-12 07:12:56 51°13.598 2°56.095 125.5 -999 161 -999
2007-06-12 07:13:01 51°13.598 2°56.095 125.5 -999 2 -999
2007-06-12 07:13:06 51°13.598 2°56.095 125.5 -999 158 -999
2007-06-12 07:13:11 51°13.598 2°56.095 125.5 -999 306 -999
2007-06-12 07:13:16 51°13.598 2°56.095 125.5 -999 335 -999
2007-06-12 07:13:21 51°13.598 2°56.095 125.5 -999 14 -999
2007-06-12 07:13:26 51°13.599 2°56.095 125.5 -999 349 -999
2007-06-12 07:13:31 51°13.599 2°56.095 125.5 -999 35 -999
2007-06-12 07:13:36 51°13.599 2°56.095 125.5 -999 201 -999
2007-06-12 07:13:41 51°13.599 2°56.094 125.5 -999 166 -999
2007-06-12 07:13:46 51°13.599 2°56.094 125.5 -999 82 -999
2007-06-12 07:13:51 51°13.599 2°56.094 125.5 -999 310 -999
2007-06-12 07:13:56 51°13.599 2°56.094 125.5 -999 168 -999
2007-06-12 07:14:01 51°13.599 2°56.094 125.5 -999 336 -999
2007-06-12 07:14:06 51°13.599 2°56.094 125.5 -999 264 -999
2007-06-12 07:14:11 51°13.599 2°56.094 125.5 -999 254 -999
2007-06-12 07:14:16 51°13.599 2°56.094 125.6 -999 345 -999
2007-06-12 07:14:21 51°13.599 2°56.094 125.6 -999 318 -999
2007-06-12 07:14:26 51°13.599 2°56.094 125.6 -999 325 -999
2007-06-12 07:14:31 51°13.599 2°56.094 125.6 -999 127 -999
2007-06-12 07:14:36 51°13.599 2°56.094 125.6 -999 15 -999
2007-06-12 07:14:41 51°13.599 2°56.094 125.5 -999 173 -999
2007-06-12 07:14:46 51°13.599 2°56.094 125.5 -999 164 -999
2007-06-12 07:14:51 51°13.599 2°56.094 125.5 -999 200 -999
2007-06-12 07:14:56 51°13.599 2°56.094 125.5 -999 195 -999
2007-06-12 07:15:01 51°13.599 2°56.094 125.5 -999 214 -999
2007-06-12 07:15:06 51°13.599 2°56.094 125.5 -999 290 -999
2007-06-12 07:15:11 51°13.599 2°56.094 125.4 -999 209 -999
2007-06-12 07:15:16 51°13.599 2°56.093 125.3 -999 187 -999
2007-06-12 07:15:21 51°13.599 2°56.093 125.3 -999 175 -999
2007-06-12 07:15:26 51°13.599 2°56.093 125.3 -999 356 -999
2007-06-12 07:15:31 51°13.599 2°56.093 125.2 -999 277 -999
2007-06-12 07:15:36 51°13.599 2°56.093 125.2 -999 9 -999
2007-06-12 07:15:41 51°13.599 2°56.093 125.2 -999 253 -999
2007-06-12 07:15:46 51°13.599 2°56.093 125.2 -999 182 -999
2007-06-12 07:15:51 51°13.599 2°56.093 125.2 -999 138 -999
2007-06-12 07:15:56 51°13.599 2°56.093 125.2 -999 51 -999
2007-06-12 07:16:01 51°13.599 2°56.093 125.2 0.1 179 -999
2007-06-12 07:16:06 51°13.6 2°56.093 125.2 -999 18 -999
2007-06-12 07:16:11 51°13.6 2°56.094 125.2 -999 352 -999
2007-06-12 07:16:16 51°13.6 2°56.094 125.2 -999 -999 -999
2007-06-12 07:16:21 51°13.6 2°56.094 125.3 -999 324 -999
2007-06-12 07:16:26 51°13.6 2°56.094 125.3 -999 111 -999
2007-06-12 07:16:31 51°13.6 2°56.094 125.4 0.1 2 -999
2007-06-12 07:16:36 51°13.6 2°56.094 125.4 -999 203 -999
2007-06-12 07:16:41 51°13.6 2°56.094 125.4 -999 153 -999
2007-06-12 07:16:46 51°13.6 2°56.094 125.4 -999 246 -999
2007-06-12 07:16:51 51°13.6 2°56.093 125.4 -999 21 -999
2007-06-12 07:16:56 51°13.6 2°56.093 125.4 -999 276 -999
2007-06-12 07:17:01 51°13.6 2°56.093 125.4 -999 179 -999
2007-06-12 07:17:06 51°13.6 2°56.093 125.4 -999 150 -999
2007-06-12 07:17:11 51°13.6 2°56.094 125.4 -999 2 -999
2007-06-12 07:17:16 51°13.6 2°56.094 125.4 -999 321 -999
2007-06-12 07:17:21 51°13.6 2°56.094 125.4 -999 164 -999
2007-06-12 07:17:26 51°13.6 2°56.094 125.4 -999 154 -999
2007-06-12 07:17:31 51°13.6 2°56.094 125.4 -999 7 -999
2007-06-12 07:17:36 51°13.6 2°56.094 125.4 -999 245 -999
2007-06-12 07:17:41 51°13.6 2°56.094 125.4 -999 154 -999
2007-06-12 07:17:46 51°13.6 2°56.094 125.4 -999 332 -999
2007-06-12 07:17:51 51°13.6 2°56.094 125.4 -999 31 -999
2007-06-12 07:17:56 51°13.6 2°56.094 125.4 -999 331 -999
2007-06-12 07:18:01 51°13.601 2°56.094 125.4 -999 60 -999
2007-06-12 07:18:06 51°13.601 2°56.094 125.4 -999 39 -999
2007-06-12 07:18:11 51°13.601 2°56.094 125.4 -999 306 -999
2007-06-12 07:18:16 51°13.601 2°56.094 125.4 -999 169 -999
2007-06-12 07:18:21 51°13.601 2°56.094 125.4 -999 134 -999
2007-06-12 07:18:26 51°13.601 2°56.094 125.4 -999 54 -999
2007-06-12 07:18:31 51°13.601 2°56.094 125.4 -999 283 -999
2007-06-12 07:18:36 51°13.601 2°56.094 125.4 -999 4 -999
2007-06-12 07:18:41 51°13.601 2°56.094 125.4 -999 275 -999
2007-06-12 07:18:46 51°13.601 2°56.094 125.4 -999 148 -999
2007-06-12 07:18:51 51°13.601 2°56.094 125.4 -999 315 -999
2007-06-12 07:18:56 51°13.601 2°56.094 125.4 -999 287 -999
2007-06-12 07:19:01 51°13.601 2°56.094 125.4 -999 335 -999
2007-06-12 07:19:06 51°13.601 2°56.094 125.4 -999 255 -999
2007-06-12 07:19:11 51°13.601 2°56.094 125.4 -999 44 -999
2007-06-12 07:19:16 51°13.601 2°56.094 125.4 -999 23 -999
2007-06-12 07:19:21 51°13.601 2°56.094 125.4 -999 126 -999
2007-06-12 07:19:26 51°13.601 2°56.094 125.4 -999 156 -999
2007-06-12 07:19:31 51°13.601 2°56.094 125.4 -999 332 -999
2007-06-12 07:19:36 51°13.601 2°56.094 125.4 -999 228 -999
2007-06-12 07:19:41 51°13.601 2°56.094 125.4 -999 344 -999
2007-06-12 07:19:46 51°13.601 2°56.094 125.4 -999 327 -999
2007-06-12 07:19:51 51°13.601 2°56.094 125.5 -999 5 -999
2007-06-12 07:19:56 51°13.601 2°56.094 125.5 -999 154 -999
2007-06-12 07:20:01 51°13.601 2°56.094 125.5 -999 297 -999
2007-06-12 07:20:06 51°13.6 2°56.094 125.5 -999 142 -999
2007-06-12 07:20:11 51°13.6 2°56.094 125.5 -999 61 -999
2007-06-12 07:20:16 51°13.6 2°56.094 125.5 -999 185 -999
2007-06-12 07:20:21 51°13.6 2°56.094 125.5 -999 257 -999
2007-06-12 07:20:26 51°13.6 2°56.094 125.5 -999 355 -999
2007-06-12 07:20:31 51°13.6 2°56.094 125.5 -999 357 -999
2007-06-12 07:20:36 51°13.6 2°56.094 125.5 -999 250 -999
2007-06-12 07:20:41 51°13.6 2°56.094 125.5 -999 314 -999
2007-06-12 07:20:46 51°13.6 2°56.094 125.5 -999 137 -999
2007-06-12 07:20:51 51°13.6 2°56.094 125.5 -999 162 -999
2007-06-12 07:20:56 51°13.6 2°56.094 125.5 -999 179 -999
2007-06-12 07:21:01 51°13.6 2°56.094 125.5 -999 228 -999
2007-06-12 07:21:06 51°13.6 2°56.094 125.5 0.1 177 -999
2007-06-12 07:21:11 51°13.601 2°56.094 125.5 0.1 351 -999
2007-06-12 07:21:16 51°13.601 2°56.094 125.5 -999 264 -999
2007-06-12 07:21:21 51°13.601 2°56.094 125.5 -999 167 -999
2007-06-12 07:21:26 51°13.601 2°56.094 125.5 -999 331 -999
2007-06-12 07:21:31 51°13.601 2°56.094 125.5 -999 223 -999
2007-06-12 07:21:36 51°13.601 2°56.095 125.5 -999 170 -999
2007-06-12 07:21:41 51°13.601 2°56.095 125.5 -999 139 -999
2007-06-12 07:21:46 51°13.6 2°56.095 125.5 -999 179 -999
2007-06-12 07:21:51 51°13.6 2°56.095 125.5 -999 162 -999
2007-06-12 07:21:56 51°13.6 2°56.095 125.5 -999 117 -999
2007-06-12 07:22:01 51°13.6 2°56.095 125.5 -999 174 -999
2007-06-12 07:22:06 51°13.6 2°56.095 125.5 -999 242 -999
2007-06-12 07:22:11 51°13.6 2°56.095 125.5 -999 258 -999
2007-06-12 07:22:16 51°13.6 2°56.095 125.5 -999 154 -999
2007-06-12 07:22:21 51°13.6 2°56.095 125.5 -999 209 -999
2007-06-12 07:22:26 51°13.6 2°56.095 125.5 -999 325 -999
2007-06-12 07:22:31 51°13.6 2°56.095 125.5 -999 91 -999
2007-06-12 07:22:36 51°13.599 2°56.095 125.5 -999 5 -999
2007-06-12 07:22:41 51°13.599 2°56.095 125.5 -999 169 -999
2007-06-12 07:22:46 51°13.599 2°56.095 125.5 -999 152 -999
2007-06-12 07:22:51 51°13.599 2°56.095 125.5 -999 173 -999
2007-06-12 07:22:56 51°13.599 2°56.095 125.5 -999 90 -999
2007-06-12 07:23:01 51°13.599 2°56.095 125.5 -999 -999 -999
2007-06-12 07:23:06 51°13.599 2°56.095 125.6 -999 148 -999
2007-06-12 07:23:11 51°13.599 2°56.095 125.5 -999 159 -999
2007-06-12 07:23:16 51°13.599 2°56.095 125.5 -999 4 -999
2007-06-12 07:23:21 51°13.599 2°56.095 125.5 -999 310 -999
2007-06-12 07:23:26 51°13.599 2°56.095 125.5 -999 327 -999
2007-06-12 07:23:31 51°13.599 2°56.095 125.5 -999 220 -999
2007-06-12 07:23:36 51°13.599 2°56.095 125.5 -999 10 -999
2007-06-12 07:23:41 51°13.599 2°56.095 125.5 -999 212 -999
2007-06-12 07:23:46 51°13.599 2°56.094 125.5 -999 149 -999
2007-06-12 07:23:51 51°13.599 2°56.094 125.5 -999 170 -999
2007-06-12 07:23:56 51°13.599 2°56.094 125.5 -999 152 -999
2007-06-12 07:24:01 51°13.599 2°56.094 125.5 -999 259 -999
2007-06-12 07:24:06 51°13.599 2°56.094 125.5 -999 167 -999
2007-06-12 07:24:11 51°13.599 2°56.094 125.5 -999 332 -999
2007-06-12 07:24:16 51°13.599 2°56.094 125.5 -999 341 -999
2007-06-12 07:24:21 51°13.599 2°56.094 125.5 -999 42 -999
2007-06-12 07:24:26 51°13.599 2°56.094 125.5 -999 344 -999
2007-06-12 07:24:31 51°13.599 2°56.094 125.5 -999 315 -999
2007-06-12 07:24:36 51°13.599 2°56.094 125.5 -999 346 -999
2007-06-12 07:24:41 51°13.599 2°56.094 125.5 -999 198 -999
2007-06-12 07:24:46 51°13.599 2°56.094 125.5 -999 329 -999
2007-06-12 07:24:51 51°13.599 2°56.094 125.5 -999 154 -999
2007-06-12 07:24:56 51°13.599 2°56.094 125.5 -999 -999 -999
2007-06-12 07:25:01 51°13.599 2°56.094 125.5 -999 346 -999
2007-06-12 07:25:06 51°13.599 2°56.094 125.5 -999 350 -999
2007-06-12 07:25:11 51°13.598 2°56.094 125.5 -999 169 -999
2007-06-12 07:25:16 51°13.598 2°56.094 125.5 -999 168 -999
2007-06-12 07:25:21 51°13.598 2°56.094 125.5 -999 98 -999
2007-06-12 07:25:26 51°13.598 2°56.094 125.5 -999 143 -999
2007-06-12 07:25:31 51°13.598 2°56.095 125.5 -999 215 -999
2007-06-12 07:25:36 51°13.598 2°56.095 125.5 -999 162 -999
2007-06-12 07:25:41 51°13.598 2°56.095 125.5 -999 353 -999
2007-06-12 07:25:46 51°13.598 2°56.095 125.5 -999 1 -999
2007-06-12 07:25:51 51°13.598 2°56.095 125.5 -999 252 -999
2007-06-12 07:25:56 51°13.598 2°56.095 125.5 -999 188 -999
2007-06-12 07:26:01 51°13.598 2°56.095 125.5 -999 180 -999
2007-06-12 07:26:06 51°13.598 2°56.095 125.5 -999 1 -999
2007-06-12 07:26:11 51°13.598 2°56.095 125.5 -999 3 -999
2007-06-12 07:26:16 51°13.598 2°56.095 125.5 -999 358 -999
2007-06-12 07:26:21 51°13.598 2°56.095 125.5 -999 354 -999
2007-06-12 07:26:26 51°13.598 2°56.095 125.5 -999 175 -999
2007-06-12 07:26:31 51°13.598 2°56.095 125.5 -999 10 -999
2007-06-12 07:26:36 51°13.598 2°56.095 125.5 -999 148 -999
2007-06-12 07:26:41 51°13.598 2°56.095 125.5 -999 206 -999
2007-06-12 07:26:46 51°13.598 2°56.095 125.5 -999 320 -999
2007-06-12 07:26:51 51°13.598 2°56.095 125.5 -999 13 -999
2007-06-12 07:26:56 51°13.598 2°56.095 125.5 -999 120 -999
2007-06-12 07:27:01 51°13.598 2°56.095 125.5 -999 90 -999
2007-06-12 07:27:06 51°13.598 2°56.095 125.5 -999 334 -999
2007-06-12 07:27:11 51°13.598 2°56.095 125.5 -999 185 -999
2007-06-12 07:27:16 51°13.598 2°56.095 125.5 -999 191 -999
2007-06-12 07:27:21 51°13.598 2°56.095 125.5 -999 160 -999
2007-06-12 07:27:26 51°13.598 2°56.095 125.5 -999 162 -999
2007-06-12 07:27:31 51°13.598 2°56.095 125.5 -999 22 -999
2007-06-12 07:27:36 51°13.598 2°56.095 125.5 -999 341 -999
2007-06-12 07:27:41 51°13.598 2°56.095 125.4 -999 64 -999
2007-06-12 07:27:46 51°13.598 2°56.095 125.4 -999 358 -999
2007-06-12 07:27:51 51°13.598 2°56.095 125.4 -999 350 -999
2007-06-12 07:27:56 51°13.598 2°56.095 125.4 -999 171 -999
2007-06-12 07:28:01 51°13.598 2°56.095 125.4 -999 161 -999
2007-06-12 07:28:06 51°13.598 2°56.095 125.4 -999 103 -999
2007-06-12 07:28:11 51°13.598 2°56.095 125.4 -999 351 -999
2007-06-12 07:28:16 51°13.598 2°56.094 125.4 -999 290 -999
2007-06-12 07:28:21 51°13.598 2°56.094 125.5 -999 86 -999
2007-06-12 07:28:26 51°13.598 2°56.094 125.5 -999 144 -999
2007-06-12 07:28:31 51°13.597 2°56.094 125.5 -999 182 -999
2007-06-12 07:28:36 51°13.597 2°56.094 125.5 -999 333 -999
2007-06-12 07:28:41 51°13.597 2°56.094 125.5 -999 349 -999
2007-06-12 07:28:46 51°13.597 2°56.094 125.5 -999 78 -999
2007-06-12 07:28:51 51°13.597 2°56.094 125.5 -999 347 -999
2007-06-12 07:28:56 51°13.597 2°56.094 125.5 -999 328 -999
2007-06-12 07:29:01 51°13.597 2°56.094 125.5 -999 37 -999
2007-06-12 07:29:06 51°13.596 2°56.094 125.5 -999 252 -999
2007-06-12 07:29:11 51°13.596 2°56.094 125.5 -999 152 -999
2007-06-12 07:29:16 51°13.596 2°56.093 125.5 -999 142 -999
2007-06-12 07:29:21 51°13.596 2°56.093 125.5 -999 168 -999
2007-06-12 07:29:26 51°13.597 2°56.093 125.5 -999 289 -999
2007-06-12 07:29:31 51°13.597 2°56.093 125.5 -999 104 -999
2007-06-12 07:29:36 51°13.597 2°56.093 125.5 -999 290 -999
2007-06-12 07:29:41 51°13.597 2°56.093 125.5 -999 309 -999
2007-06-12 07:29:46 51°13.597 2°56.093 125.5 -999 331 -999
2007-06-12 07:29:51 51°13.597 2°56.093 125.5 -999 98 -999
2007-06-12 07:29:56 51°13.597 2°56.093 125.5 -999 71 -999
2007-06-12 07:30:01 51°13.597 2°56.092 125.5 -999 355 -999
2007-06-12 07:30:06 51°13.597 2°56.092 125.5 -999 315 -999
2007-06-12 07:30:11 51°13.597 2°56.092 125.5 -999 162 -999
2007-06-12 07:30:16 51°13.597 2°56.093 125.5 0.1 128 -999
2007-06-12 07:30:21 51°13.597 2°56.093 125.5 -999 160 -999
2007-06-12 07:30:26 51°13.597 2°56.093 125.5 -999 357 -999
2007-06-12 07:30:31 51°13.597 2°56.093 125.5 -999 242 -999
2007-06-12 07:30:36 51°13.598 2°56.093 125.5 -999 342 -999
2007-06-12 07:30:41 51°13.597 2°56.093 125.5 -999 181 -999
2007-06-12 07:30:46 51°13.597 2°56.093 125.5 -999 142 -999
2007-06-12 07:30:51 51°13.598 2°56.093 125.5 -999 286 -999
2007-06-12 07:30:56 51°13.598 2°56.093 125.6 -999 190 -999
2007-06-12 07:31:01 51°13.598 2°56.093 125.6 -999 39 -999
2007-06-12 07:31:06 51°13.598 2°56.093 125.5 -999 327 -999
2007-06-12 07:31:11 51°13.598 2°56.093 125.5 -999 335 -999
2007-06-12 07:31:16 51°13.598 2°56.093 125.5 -999 312 -999
2007-06-12 07:31:21 51°13.598 2°56.093 125.5 0.1 168 -999
2007-06-12 07:31:26 51°13.598 2°56.093 125.5 -999 162 -999
2007-06-12 07:31:31 51°13.598 2°56.093 125.5 -999 147 -999
2007-06-12 07:31:36 51°13.598 2°56.093 125.5 -999 147 -999
2007-06-12 07:31:41 51°13.598 2°56.093 125.5 -999 16 -999
2007-06-12 07:31:46 51°13.598 2°56.093 125.5 -999 328 -999
2007-06-12 07:31:51 51°13.598 2°56.093 125.5 -999 318 -999
2007-06-12 07:31:56 51°13.598 2°56.093 125.5 -999 78 -999
2007-06-12 07:32:01 51°13.598 2°56.093 125.5 -999 265 -999
2007-06-12 07:32:06 51°13.598 2°56.093 125.5 -999 358 -999
2007-06-12 07:32:11 51°13.598 2°56.093 125.5 -999 63 -999
2007-06-12 07:32:16 51°13.598 2°56.093 125.5 -999 288 -999
2007-06-12 07:32:21 51°13.598 2°56.093 125.5 -999 167 -999
2007-06-12 07:32:26 51°13.598 2°56.093 125.5 -999 355 -999
2007-06-12 07:32:31 51°13.598 2°56.093 125.5 -999 160 -999
2007-06-12 07:32:36 51°13.599 2°56.093 125.5 -999 137 -999
2007-06-12 07:32:41 51°13.599 2°56.093 125.5 -999 281 -999
2007-06-12 07:32:46 51°13.599 2°56.093 125.5 -999 353 -999
2007-06-12 07:32:51 51°13.599 2°56.093 125.5 -999 344 -999
2007-06-12 07:32:56 51°13.598 2°56.093 125.5 -999 191 -999
2007-06-12 07:33:01 51°13.598 2°56.093 125.5 -999 129 -999
2007-06-12 07:33:06 51°13.598 2°56.093 125.5 -999 138 -999
2007-06-12 07:33:11 51°13.598 2°56.093 125.6 -999 241 -999
2007-06-12 07:33:16 51°13.598 2°56.093 125.6 -999 156 -999
2007-06-12 07:33:21 51°13.598 2°56.093 125.6 -999 264 -999
2007-06-12 07:33:26 51°13.598 2°56.093 125.6 -999 175 -999
2007-06-12 07:33:31 51°13.598 2°56.093 125.6 -999 118 -999
2007-06-12 07:33:36 51°13.598 2°56.093 125.6 -999 264 -999
2007-06-12 07:33:41 51°13.598 2°56.093 125.6 -999 129 -999
2007-06-12 07:33:46 51°13.598 2°56.093 125.6 -999 193 -999
2007-06-12 07:33:51 51°13.598 2°56.093 125.6 -999 267 -999
2007-06-12 07:33:56 51°13.598 2°56.093 125.6 -999 219 -999
2007-06-12 07:34:01 51°13.598 2°56.093 125.6 -999 183 -999
2007-06-12 07:34:06 51°13.598 2°56.093 125.6 -999 143 -999
2007-06-12 07:34:11 51°13.598 2°56.093 125.6 -999 158 -999
2007-06-12 07:34:16 51°13.598 2°56.093 125.6 -999 127 -999
2007-06-12 07:34:21 51°13.598 2°56.093 125.6 -999 173 -999
2007-06-12 07:34:26 51°13.598 2°56.093 125.6 -999 121 -999
2007-06-12 07:34:31 51°13.598 2°56.092 125.6 -999 128 -999
2007-06-12 07:34:36 51°13.598 2°56.092 125.7 -999 198 -999
2007-06-12 07:34:41 51°13.598 2°56.092 125.7 -999 166 -999
2007-06-12 07:34:46 51°13.598 2°56.092 125.7 -999 205 -999
2007-06-12 07:34:51 51°13.598 2°56.092 125.6 -999 191 -999
2007-06-12 07:34:56 51°13.598 2°56.092 125.6 -999 277 -999
2007-06-12 07:35:01 51°13.598 2°56.092 125.6 -999 116 -999
2007-06-12 07:35:06 51°13.599 2°56.092 125.5 -999 231 -999
2007-06-12 07:35:11 51°13.599 2°56.092 125.5 -999 262 -999
2007-06-12 07:35:16 51°13.599 2°56.092 125.5 -999 276 -999
2007-06-12 07:35:21 51°13.599 2°56.092 125.4 -999 240 -999
2007-06-12 07:35:26 51°13.599 2°56.092 125.3 -999 131 -999
2007-06-12 07:35:31 51°13.599 2°56.092 125.3 -999 172 -999
2007-06-12 07:35:36 51°13.599 2°56.092 125.2 -999 114 -999
2007-06-12 07:35:41 51°13.599 2°56.091 125.2 -999 241 -999
2007-06-12 07:35:46 51°13.599 2°56.091 125.2 -999 247 -999
2007-06-12 07:35:51 51°13.599 2°56.091 125.2 -999 151 -999
2007-06-12 07:35:56 51°13.599 2°56.091 125.2 -999 136 -999
2007-06-12 07:36:01 51°13.599 2°56.091 125.2 -999 137 -999
2007-06-12 07:36:06 51°13.599 2°56.091 125.2 -999 269 -999
2007-06-12 07:36:11 51°13.599 2°56.091 125.2 -999 202 -999
2007-06-12 07:36:16 51°13.599 2°56.091 125.2 -999 212 -999
2007-06-12 07:36:21 51°13.599 2°56.091 125.2 -999 191 -999
2007-06-12 07:36:26 51°13.599 2°56.091 125.2 -999 154 -999
2007-06-12 07:36:31 51°13.599 2°56.091 125.2 -999 180 -999
2007-06-12 07:36:36 51°13.599 2°56.091 125.2 -999 279 -999
2007-06-12 07:36:41 51°13.599 2°56.091 125.2 -999 124 -999
2007-06-12 07:36:46 51°13.599 2°56.091 125.2 -999 223 -999
2007-06-12 07:36:51 51°13.599 2°56.091 125.2 -999 143 -999
2007-06-12 07:36:56 51°13.599 2°56.091 125.3 -999 123 -999
2007-06-12 07:37:01 51°13.599 2°56.091 125.3 -999 130 -999
2007-06-12 07:37:06 51°13.599 2°56.091 125.3 -999 119 -999
2007-06-12 07:37:11 51°13.599 2°56.091 125.3 -999 118 -999
2007-06-12 07:37:16 51°13.599 2°56.091 125.3 -999 153 -999
2007-06-12 07:37:21 51°13.599 2°56.091 125.3 -999 133 -999
2007-06-12 07:37:26 51°13.599 2°56.091 125.3 -999 255 -999
2007-06-12 07:37:31 51°13.6 2°56.091 125.3 -999 68 -999
2007-06-12 07:37:36 51°13.6 2°56.091 125.3 -999 74 -999
2007-06-12 07:37:41 51°13.6 2°56.091 125.3 -999 139 -999
2007-06-12 07:37:46 51°13.6 2°56.092 125.3 -999 120 -999
2007-06-12 07:37:51 51°13.6 2°56.092 125.3 -999 161 -999
2007-06-12 07:37:56 51°13.6 2°56.092 125.3 -999 36 -999
2007-06-12 07:38:01 51°13.6 2°56.091 125.3 -999 327 -999
2007-06-12 07:38:06 51°13.6 2°56.092 125.3 -999 4 -999
2007-06-12 07:38:11 51°13.599 2°56.091 125.3 -999 181 -999
2007-06-12 07:38:16 51°13.599 2°56.092 125.4 -999 138 -999
2007-06-12 07:38:21 51°13.599 2°56.092 125.4 -999 282 -999
2007-06-12 07:38:26 51°13.599 2°56.092 125.4 -999 179 -999
2007-06-12 07:38:31 51°13.598 2°56.092 125.4 -999 196 -999
2007-06-12 07:38:36 51°13.598 2°56.092 125.4 -999 130 -999
2007-06-12 07:38:41 51°13.597 2°56.092 125.4 -999 282 -999
2007-06-12 07:38:46 51°13.597 2°56.092 125.4 -999 317 -999
2007-06-12 07:38:51 51°13.597 2°56.092 125.4 -999 301 -999
2007-06-12 07:38:56 51°13.597 2°56.092 125.4 -999 283 -999
2007-06-12 07:39:01 51°13.597 2°56.092 125.4 -999 132 -999
2007-06-12 07:39:06 51°13.597 2°56.092 125.4 -999 182 -999
2007-06-12 07:39:11 51°13.597 2°56.092 125.4 -999 297 -999
2007-06-12 07:39:16 51°13.597 2°56.092 125.4 -999 323 -999
2007-06-12 07:39:21 51°13.597 2°56.092 125.4 -999 328 -999
2007-06-12 07:39:26 51°13.597 2°56.092 125.4 -999 45 -999
2007-06-12 07:39:31 51°13.597 2°56.092 125.3 -999 122 -999
2007-06-12 07:39:36 51°13.597 2°56.092 125.3 -999 193 -999
2007-06-12 07:39:41 51°13.597 2°56.092 125.3 -999 323 -999
2007-06-12 07:39:46 51°13.597 2°56.093 125.3 -999 337 -999
2007-06-12 07:39:51 51°13.597 2°56.093 125.3 -999 207 -999
2007-06-12 07:39:56 51°13.597 2°56.093 125.3 -999 171 -999
2007-06-12 07:40:01 51°13.597 2°56.093 125.3 0.1 133 -999
2007-06-12 07:40:06 51°13.597 2°56.093 125.3 0.1 144 -999
2007-06-12 07:40:11 51°13.597 2°56.093 125.3 -999 190 -999
2007-06-12 07:40:16 51°13.597 2°56.093 125.3 0.1 136 -999
2007-06-12 07:40:21 51°13.597 2°56.093 125.3 -999 11 -999
2007-06-12 07:40:26 51°13.597 2°56.093 125.3 -999 288 -999
2007-06-12 07:40:31 51°13.598 2°56.093 125.3 -999 109 -999
2007-06-12 07:40:36 51°13.598 2°56.094 125.3 -999 257 -999
2007-06-12 07:40:41 51°13.598 2°56.094 125.3 -999 194 -999
2007-06-12 07:40:46 51°13.598 2°56.094 125.3 -999 28 -999
2007-06-12 07:40:51 51°13.598 2°56.094 125.3 -999 195 -999
2007-06-12 07:40:56 51°13.598 2°56.094 125.3 -999 277 -999
2007-06-12 07:41:01 51°13.598 2°56.094 125.3 -999 78 -999
2007-06-12 07:41:06 51°13.598 2°56.094 125.3 -999 248 -999
2007-06-12 07:41:11 51°13.598 2°56.094 125.3 -999 283 -999
2007-06-12 07:41:16 51°13.598 2°56.094 125.3 -999 102 -999
2007-06-12 07:41:21 51°13.599 2°56.094 125.3 -999 79 -999
2007-06-12 07:41:26 51°13.599 2°56.094 125.3 -999 246 -999
2007-06-12 07:41:31 51°13.599 2°56.094 125.3 -999 88 -999
2007-06-12 07:41:36 51°13.599 2°56.094 125.3 -999 109 -999
2007-06-12 07:41:41 51°13.599 2°56.094 125.3 -999 74 -999
2007-06-12 07:41:46 51°13.599 2°56.094 125.3 -999 238 -999
2007-06-12 07:41:51 51°13.599 2°56.094 125.4 -999 347 -999
2007-06-12 07:41:56 51°13.599 2°56.094 125.4 -999 270 -999
2007-06-12 07:42:01 51°13.599 2°56.094 125.4 -999 359 -999
2007-06-12 07:42:06 51°13.599 2°56.094 125.4 -999 300 -999
2007-06-12 07:42:11 51°13.599 2°56.094 125.4 -999 264 -999
2007-06-12 07:42:16 51°13.599 2°56.094 125.4 -999 68 -999
2007-06-12 07:42:21 51°13.599 2°56.094 125.4 -999 279 -999
2007-06-12 07:42:26 51°13.599 2°56.094 125.4 -999 286 -999
2007-06-12 07:42:31 51°13.599 2°56.094 125.4 -999 289 -999
2007-06-12 07:42:36 51°13.599 2°56.094 125.4 -999 269 -999
2007-06-12 07:42:41 51°13.599 2°56.094 125.4 -999 345 -999
2007-06-12 07:42:46 51°13.599 2°56.094 125.4 -999 109 -999
2007-06-12 07:42:51 51°13.599 2°56.094 125.4 -999 221 -999
2007-06-12 07:42:56 51°13.599 2°56.094 125.4 -999 126 -999
2007-06-12 07:43:01 51°13.599 2°56.094 125.4 -999 131 -999
2007-06-12 07:43:06 51°13.599 2°56.094 125.4 -999 252 -999
2007-06-12 07:43:11 51°13.599 2°56.094 125.4 -999 41 -999
2007-06-12 07:43:16 51°13.598 2°56.094 125.4 -999 325 -999
2007-06-12 07:43:21 51°13.598 2°56.094 125.5 -999 130 -999
2007-06-12 07:43:26 51°13.598 2°56.094 125.5 -999 139 -999
2007-06-12 07:43:31 51°13.598 2°56.094 125.5 -999 3 -999
2007-06-12 07:43:36 51°13.598 2°56.094 125.5 -999 119 -999
2007-06-12 07:43:41 51°13.598 2°56.094 125.5 -999 108 -999
2007-06-12 07:43:46 51°13.598 2°56.094 125.5 -999 330 -999
2007-06-12 07:43:51 51°13.598 2°56.094 125.5 -999 76 -999
2007-06-12 07:43:56 51°13.598 2°56.094 125.5 -999 254 -999
2007-06-12 07:44:01 51°13.599 2°56.094 125.5 -999 44 -999
2007-06-12 07:44:06 51°13.598 2°56.094 125.5 -999 272 -999
2007-06-12 07:44:11 51°13.598 2°56.094 125.5 -999 291 -999
2007-06-12 07:44:16 51°13.598 2°56.094 125.5 -999 173 -999
2007-06-12 07:44:21 51°13.599 2°56.094 125.5 -999 318 -999
2007-06-12 07:44:26 51°13.599 2°56.094 125.5 -999 258 -999
2007-06-12 07:44:31 51°13.599 2°56.094 125.5 -999 123 -999
2007-06-12 07:44:36 51°13.599 2°56.094 125.5 -999 88 -999
2007-06-12 07:44:41 51°13.599 2°56.094 125.5 -999 325 -999
2007-06-12 07:44:46 51°13.599 2°56.094 125.5 -999 291 -999
2007-06-12 07:44:51 51°13.599 2°56.094 125.5 -999 197 -999
2007-06-12 07:44:56 51°13.599 2°56.094 125.5 -999 355 -999
2007-06-12 07:45:01 51°13.599 2°56.094 125.5 -999 109 -999
2007-06-12 07:45:06 51°13.599 2°56.094 125.5 -999 93 -999
2007-06-12 07:45:11 51°13.599 2°56.094 125.5 -999 31 -999
2007-06-12 07:45:16 51°13.599 2°56.094 125.5 -999 109 -999
2007-06-12 07:45:21 51°13.599 2°56.094 125.5 -999 89 -999
2007-06-12 07:45:26 51°13.599 2°56.094 125.5 -999 279 -999
2007-06-12 07:45:31 51°13.599 2°56.094 125.5 -999 2 -999
2007-06-12 07:45:36 51°13.599 2°56.094 125.5 -999 40 -999
2007-06-12 07:45:41 51°13.599 2°56.094 125.5 -999 116 -999
2007-06-12 07:45:46 51°13.599 2°56.094 125.5 -999 98 -999
2007-06-12 07:45:51 51°13.599 2°56.094 125.5 -999 278 -999
2007-06-12 07:45:56 51°13.599 2°56.094 125.5 -999 278 -999
2007-06-12 07:46:01 51°13.599 2°56.094 125.5 -999 251 -999
2007-06-12 07:46:06 51°13.599 2°56.094 125.5 -999 91 -999
2007-06-12 07:46:11 51°13.599 2°56.094 125.5 -999 338 -999
2007-06-12 07:46:16 51°13.599 2°56.094 125.5 -999 275 -999
2007-06-12 07:46:21 51°13.599 2°56.094 125.5 -999 295 -999
2007-06-12 07:46:26 51°13.599 2°56.094 125.5 -999 78 -999
2007-06-12 07:46:31 51°13.599 2°56.094 125.5 -999 108 -999
2007-06-12 07:46:36 51°13.599 2°56.094 125.5 -999 94 -999
2007-06-12 07:46:41 51°13.599 2°56.094 125.5 -999 239 -999
2007-06-12 07:46:46 51°13.599 2°56.094 125.5 -999 45 -999
2007-06-12 07:46:51 51°13.599 2°56.095 125.5 -999 249 -999
2007-06-12 07:46:56 51°13.599 2°56.095 125.5 -999 85 -999
2007-06-12 07:47:01 51°13.599 2°56.095 125.5 -999 67 -999
2007-06-12 07:47:06 51°13.599 2°56.095 125.5 -999 137 -999
2007-06-12 07:47:11 51°13.599 2°56.095 125.5 -999 103 -999
2007-06-12 07:47:16 51°13.599 2°56.094 125.5 -999 145 -999
2007-06-12 07:47:21 51°13.599 2°56.094 125.5 -999 167 -999
2007-06-12 07:47:26 51°13.599 2°56.094 125.5 -999 69 -999
2007-06-12 07:47:31 51°13.599 2°56.094 125.5 -999 110 -999
2007-06-12 07:47:36 51°13.599 2°56.094 125.5 -999 262 -999
2007-06-12 07:47:41 51°13.599 2°56.094 125.5 -999 252 -999
2007-06-12 07:47:46 51°13.599 2°56.094 125.5 -999 123 -999
2007-06-12 07:47:51 51°13.599 2°56.094 125.5 -999 86 -999
2007-06-12 07:47:56 51°13.599 2°56.094 125.5 -999 283 -999
2007-06-12 07:48:01 51°13.599 2°56.094 125.5 -999 276 -999
2007-06-12 07:48:06 51°13.599 2°56.094 125.5 -999 277 -999
2007-06-12 07:48:11 51°13.599 2°56.094 125.5 -999 6 -999
2007-06-12 07:48:16 51°13.599 2°56.094 125.5 -999 170 -999
2007-06-12 07:48:21 51°13.599 2°56.094 125.5 -999 120 -999
2007-06-12 07:48:26 51°13.599 2°56.094 125.5 -999 78 -999
2007-06-12 07:48:31 51°13.599 2°56.094 125.5 -999 5 -999
2007-06-12 07:48:36 51°13.599 2°56.094 125.5 -999 352 -999
2007-06-12 07:48:41 51°13.599 2°56.094 125.5 -999 294 -999
2007-06-12 07:48:46 51°13.599 2°56.094 125.5 -999 276 -999
2007-06-12 07:48:51 51°13.599 2°56.094 125.5 -999 291 -999
2007-06-12 07:48:56 51°13.599 2°56.094 125.5 -999 284 -999
2007-06-12 07:49:01 51°13.599 2°56.094 125.5 -999 106 -999
2007-06-12 07:49:06 51°13.599 2°56.094 125.5 -999 32 -999
2007-06-12 07:49:11 51°13.599 2°56.094 125.5 -999 253 -999
2007-06-12 07:49:16 51°13.599 2°56.094 125.5 -999 120 -999
2007-06-12 07:49:21 51°13.599 2°56.094 125.5 -999 103 -999
2007-06-12 07:49:26 51°13.599 2°56.094 125.5 -999 308 -999
2007-06-12 07:49:31 51°13.599 2°56.094 125.5 -999 305 -999
2007-06-12 07:49:36 51°13.599 2°56.094 125.5 -999 267 -999
2007-06-12 07:49:41 51°13.599 2°56.094 125.5 -999 352 -999
2007-06-12 07:49:46 51°13.599 2°56.094 125.5 -999 234 -999
2007-06-12 07:49:51 51°13.599 2°56.094 125.5 -999 327 -999
2007-06-12 07:49:56 51°13.599 2°56.094 125.5 -999 346 -999
2007-06-12 07:50:01 51°13.599 2°56.094 125.5 -999 294 -999
2007-06-12 07:50:06 51°13.599 2°56.094 125.6 -999 254 -999
2007-06-12 07:50:11 51°13.599 2°56.094 125.6 -999 294 -999
2007-06-12 07:50:16 51°13.599 2°56.094 125.6 -999 91 -999
2007-06-12 07:50:21 51°13.599 2°56.094 125.6 -999 170 -999
2007-06-12 07:50:26 51°13.599 2°56.094 125.6 -999 95 -999
2007-06-12 07:50:31 51°13.599 2°56.094 125.5 -999 309 -999
2007-06-12 07:50:36 51°13.599 2°56.094 125.5 -999 296 -999
2007-06-12 07:50:41 51°13.599 2°56.094 125.5 -999 124 -999
2007-06-12 07:50:46 51°13.599 2°56.094 125.5 -999 106 -999
2007-06-12 07:50:51 51°13.599 2°56.094 125.5 -999 124 -999
2007-06-12 07:50:56 51°13.599 2°56.094 125.5 -999 50 -999
2007-06-12 07:51:01 51°13.599 2°56.094 125.5 -999 22 -999
2007-06-12 07:51:06 51°13.599 2°56.094 125.5 -999 207 -999
2007-06-12 07:51:11 51°13.599 2°56.094 125.5 -999 158 -999
2007-06-12 07:51:16 51°13.599 2°56.094 125.5 -999 268 -999
2007-06-12 07:51:21 51°13.599 2°56.094 125.5 -999 330 -999
2007-06-12 07:51:26 51°13.599 2°56.094 125.5 -999 263 -999
2007-06-12 07:51:31 51°13.599 2°56.094 125.5 -999 244 -999
2007-06-12 07:51:36 51°13.599 2°56.094 125.5 -999 300 -999
2007-06-12 07:51:41 51°13.599 2°56.094 125.5 -999 205 -999
2007-06-12 07:51:46 51°13.599 2°56.094 125.5 -999 300 -999
2007-06-12 07:51:51 51°13.599 2°56.094 125.5 -999 84 -999
2007-06-12 07:51:56 51°13.599 2°56.094 125.5 -999 253 -999
2007-06-12 07:52:01 51°13.599 2°56.094 125.5 -999 258 -999
2007-06-12 07:52:06 51°13.599 2°56.094 125.5 -999 86 -999
2007-06-12 07:52:11 51°13.599 2°56.094 125.5 -999 159 -999
2007-06-12 07:52:16 51°13.599 2°56.094 125.5 -999 336 -999
2007-06-12 07:52:21 51°13.599 2°56.094 125.5 -999 132 -999
2007-06-12 07:52:26 51°13.599 2°56.094 125.5 -999 276 -999
2007-06-12 07:52:31 51°13.599 2°56.094 125.5 -999 125 -999
2007-06-12 07:52:36 51°13.599 2°56.094 125.5 -999 99 -999
2007-06-12 07:52:41 51°13.599 2°56.094 125.5 -999 356 -999
2007-06-12 07:52:46 51°13.599 2°56.094 125.6 -999 252 -999
2007-06-12 07:52:51 51°13.599 2°56.094 125.6 -999 149 -999
2007-06-12 07:52:56 51°13.599 2°56.094 125.6 -999 97 -999
2007-06-12 07:53:01 51°13.599 2°56.094 125.6 -999 150 -999
2007-06-12 07:53:06 51°13.599 2°56.094 125.6 -999 148 -999
2007-06-12 07:53:11 51°13.599 2°56.094 125.6 -999 205 -999
2007-06-12 07:53:16 51°13.599 2°56.094 125.6 -999 263 -999
2007-06-12 07:53:21 51°13.599 2°56.094 125.6 -999 302 -999
2007-06-12 07:53:26 51°13.599 2°56.094 125.6 -999 18 -999
2007-06-12 07:53:31 51°13.599 2°56.094 125.6 -999 285 -999
2007-06-12 07:53:36 51°13.599 2°56.095 125.6 -999 321 -999
2007-06-12 07:53:41 51°13.599 2°56.095 125.6 -999 295 -999
2007-06-12 07:53:46 51°13.599 2°56.095 125.6 -999 309 -999
2007-06-12 07:53:51 51°13.599 2°56.095 125.6 -999 108 -999
2007-06-12 07:53:56 51°13.599 2°56.095 125.6 -999 286 -999
2007-06-12 07:54:01 51°13.599 2°56.095 125.6 -999 178 -999
2007-06-12 07:54:06 51°13.599 2°56.095 125.6 -999 339 -999
2007-06-12 07:54:11 51°13.599 2°56.095 125.6 -999 321 -999
2007-06-12 07:54:16 51°13.599 2°56.095 125.6 -999 288 -999
2007-06-12 07:54:21 51°13.599 2°56.095 125.6 -999 323 -999
2007-06-12 07:54:26 51°13.6 2°56.095 125.6 -999 264 -999
2007-06-12 07:54:31 51°13.6 2°56.095 125.6 -999 337 -999
2007-06-12 07:54:36 51°13.6 2°56.095 125.6 -999 11 -999
2007-06-12 07:54:41 51°13.6 2°56.095 125.6 -999 234 -999
2007-06-12 07:54:46 51°13.6 2°56.095 125.6 -999 96 -999
2007-06-12 07:54:51 51°13.6 2°56.095 125.6 -999 87 -999
2007-06-12 07:54:56 51°13.6 2°56.095 125.6 -999 144 -999
2007-06-12 07:55:01 51°13.6 2°56.095 125.6 -999 2 -999
2007-06-12 07:55:06 51°13.6 2°56.095 125.6 -999 287 -999
2007-06-12 07:55:11 51°13.6 2°56.095 125.6 -999 95 -999
2007-06-12 07:55:16 51°13.6 2°56.095 125.6 -999 259 -999
2007-06-12 07:55:21 51°13.6 2°56.095 125.6 -999 83 -999
2007-06-12 07:55:26 51°13.6 2°56.095 125.6 -999 212 -999
2007-06-12 07:55:31 51°13.6 2°56.095 125.6 -999 334 -999
2007-06-12 07:55:36 51°13.6 2°56.095 125.6 -999 284 -999
2007-06-12 07:55:41 51°13.6 2°56.095 125.6 -999 126 -999
2007-06-12 07:55:46 51°13.6 2°56.094 125.6 -999 324 -999
2007-06-12 07:55:51 51°13.6 2°56.094 125.6 -999 270 -999
2007-06-12 07:55:56 51°13.6 2°56.094 125.6 -999 278 -999
2007-06-12 07:56:01 51°13.6 2°56.094 125.6 -999 287 -999
2007-06-12 07:56:06 51°13.6 2°56.094 125.6 -999 275 -999
2007-06-12 07:56:11 51°13.6 2°56.094 125.6 -999 84 -999
2007-06-12 07:56:16 51°13.6 2°56.094 125.6 -999 130 -999
2007-06-12 07:56:21 51°13.6 2°56.094 125.6 -999 90 -999
2007-06-12 07:56:26 51°13.6 2°56.094 125.6 -999 160 -999
2007-06-12 07:56:31 51°13.6 2°56.094 125.6 -999 177 -999
2007-06-12 07:56:36 51°13.6 2°56.094 125.6 -999 297 -999
2007-06-12 07:56:41 51°13.599 2°56.094 125.6 -999 166 -999
2007-06-12 07:56:46 51°13.599 2°56.094 125.6 -999 182 -999
2007-06-12 07:56:51 51°13.599 2°56.094 125.6 -999 256 -999
2007-06-12 07:56:56 51°13.599 2°56.094 125.6 -999 269 -999
2007-06-12 07:57:01 51°13.599 2°56.094 125.6 -999 220 -999
2007-06-12 07:57:06 51°13.599 2°56.094 125.6 -999 326 -999
2007-06-12 07:57:11 51°13.599 2°56.094 125.6 -999 189 -999
2007-06-12 07:57:16 51°13.599 2°56.094 125.6 -999 126 -999
2007-06-12 07:57:21 51°13.599 2°56.094 125.6 -999 85 -999
2007-06-12 07:57:26 51°13.599 2°56.094 125.6 -999 144 -999
2007-06-12 07:57:31 51°13.599 2°56.094 125.6 -999 151 -999
2007-06-12 07:57:36 51°13.599 2°56.094 125.6 -999 130 -999
2007-06-12 07:57:41 51°13.599 2°56.094 125.6 -999 145 -999
2007-06-12 07:57:46 51°13.599 2°56.094 125.6 -999 114 -999
2007-06-12 07:57:51 51°13.599 2°56.094 125.6 -999 113 -999
2007-06-12 07:57:56 51°13.599 2°56.094 125.6 -999 134 -999
2007-06-12 07:58:01 51°13.599 2°56.094 125.6 -999 305 -999
2007-06-12 07:58:06 51°13.599 2°56.094 125.6 -999 292 -999
2007-06-12 07:58:11 51°13.599 2°56.094 125.6 -999 304 -999
2007-06-12 07:58:16 51°13.599 2°56.094 125.6 -999 306 -999
2007-06-12 07:58:21 51°13.599 2°56.094 125.6 -999 291 -999
2007-06-12 07:58:26 51°13.599 2°56.094 125.6 -999 284 -999
2007-06-12 07:58:31 51°13.599 2°56.094 125.6 -999 82 -999
2007-06-12 07:58:36 51°13.599 2°56.094 125.6 -999 183 -999
2007-06-12 07:58:41 51°13.599 2°56.094 125.6 -999 89 -999
2007-06-12 07:58:46 51°13.599 2°56.094 125.6 -999 278 -999
2007-06-12 07:58:51 51°13.599 2°56.094 125.6 -999 41 -999
2007-06-12 07:58:56 51°13.599 2°56.094 125.6 -999 316 -999
2007-06-12 07:59:01 51°13.599 2°56.094 125.6 -999 90 -999
2007-06-12 07:59:06 51°13.599 2°56.094 125.6 -999 275 -999
2007-06-12 07:59:11 51°13.599 2°56.094 125.6 -999 283 -999
2007-06-12 07:59:16 51°13.599 2°56.094 125.6 -999 187 -999
2007-06-12 07:59:21 51°13.6 2°56.094 125.6 -999 70 -999
2007-06-12 07:59:26 51°13.6 2°56.094 125.6 -999 128 -999
2007-06-12 07:59:31 51°13.6 2°56.094 125.6 -999 1 -999
2007-06-12 07:59:36 51°13.6 2°56.094 125.6 -999 259 -999
2007-06-12 07:59:41 51°13.6 2°56.095 125.6 -999 102 -999
2007-06-12 07:59:46 51°13.6 2°56.095 125.6 -999 102 -999
2007-06-12 07:59:51 51°13.6 2°56.095 125.6 -999 263 -999
2007-06-12 07:59:56 51°13.6 2°56.095 125.6 -999 93 -999
2007-06-12 08:00:01 51°13.6 2°56.095 125.6 -999 97 -999
2007-06-12 08:00:06 51°13.6 2°56.095 125.6 -999 274 -999
2007-06-12 08:00:11 51°13.6 2°56.095 125.6 -999 274 -999
2007-06-12 08:00:16 51°13.6 2°56.095 125.6 -999 284 -999
2007-06-12 08:00:21 51°13.6 2°56.095 125.6 -999 105 -999
2007-06-12 08:00:26 51°13.6 2°56.095 125.6 -999 81 -999
2007-06-12 08:00:31 51°13.6 2°56.095 125.6 -999 315 -999
2007-06-12 08:00:36 51°13.6 2°56.095 125.6 -999 73 -999
2007-06-12 08:00:41 51°13.6 2°56.095 125.6 -999 128 -999
2007-06-12 08:00:46 51°13.6 2°56.095 125.6 -999 119 -999
2007-06-12 08:00:51 51°13.6 2°56.095 125.6 -999 283 -999
2007-06-12 08:00:56 51°13.6 2°56.095 125.6 -999 104 -999
2007-06-12 08:01:01 51°13.6 2°56.095 125.6 -999 358 -999
2007-06-12 08:01:06 51°13.6 2°56.095 125.6 -999 283 -999
2007-06-12 08:01:11 51°13.6 2°56.095 125.5 -999 194 -999
2007-06-12 08:01:16 51°13.599 2°56.095 125.5 -999 291 -999
2007-06-12 08:01:21 51°13.599 2°56.095 125.5 -999 308 -999
2007-06-12 08:01:26 51°13.599 2°56.095 125.5 -999 26 -999
2007-06-12 08:01:31 51°13.599 2°56.095 125.5 -999 208 -999
2007-06-12 08:01:36 51°13.599 2°56.095 125.5 -999 125 -999
2007-06-12 08:01:41 51°13.599 2°56.095 125.5 -999 91 -999
2007-06-12 08:01:46 51°13.599 2°56.095 125.5 -999 111 -999
2007-06-12 08:01:51 51°13.599 2°56.095 125.5 -999 275 -999
2007-06-12 08:01:56 51°13.599 2°56.095 125.5 -999 280 -999
2007-06-12 08:02:01 51°13.599 2°56.095 125.5 -999 134 -999
2007-06-12 08:02:06 51°13.599 2°56.095 125.5 -999 305 -999
2007-06-12 08:02:11 51°13.599 2°56.095 125.5 -999 286 -999
2007-06-12 08:02:16 51°13.599 2°56.095 125.5 -999 117 -999
2007-06-12 08:02:21 51°13.599 2°56.095 125.5 -999 99 -999
2007-06-12 08:02:26 51°13.599 2°56.095 125.5 -999 274 -999
2007-06-12 08:02:31 51°13.599 2°56.095 125.5 -999 118 -999
2007-06-12 08:02:36 51°13.598 2°56.096 125.5 -999 114 -999
2007-06-12 08:02:41 51°13.598 2°56.096 125.5 -999 268 -999
2007-06-12 08:02:46 51°13.598 2°56.096 125.5 -999 154 -999
2007-06-12 08:02:51 51°13.598 2°56.096 125.5 -999 135 -999
2007-06-12 08:02:56 51°13.598 2°56.096 125.5 -999 212 -999
2007-06-12 08:03:01 51°13.598 2°56.096 125.5 -999 149 -999
2007-06-12 08:03:06 51°13.598 2°56.096 125.5 -999 308 -999
2007-06-12 08:03:11 51°13.598 2°56.096 125.5 -999 107 -999
2007-06-12 08:03:16 51°13.598 2°56.096 125.5 -999 132 -999
2007-06-12 08:03:21 51°13.598 2°56.096 125.5 -999 254 -999
2007-06-12 08:03:26 51°13.598 2°56.096 125.5 -999 92 -999
2007-06-12 08:03:31 51°13.598 2°56.096 125.5 -999 290 -999
2007-06-12 08:03:36 51°13.598 2°56.096 125.5 -999 282 -999
2007-06-12 08:03:41 51°13.598 2°56.096 125.5 -999 118 -999
2007-06-12 08:03:46 51°13.598 2°56.096 125.5 -999 133 -999
2007-06-12 08:03:51 51°13.598 2°56.096 125.5 -999 161 -999
2007-06-12 08:03:56 51°13.598 2°56.096 125.5 -999 122 -999
2007-06-12 08:04:01 51°13.598 2°56.096 125.5 -999 131 -999
2007-06-12 08:04:06 51°13.598 2°56.096 125.5 -999 357 -999
2007-06-12 08:04:11 51°13.599 2°56.096 125.5 -999 49 -999
2007-06-12 08:04:16 51°13.599 2°56.096 125.5 -999 199 -999
2007-06-12 08:04:21 51°13.598 2°56.096 125.5 -999 103 -999
2007-06-12 08:04:26 51°13.598 2°56.096 125.5 -999 191 -999
2007-06-12 08:04:31 51°13.598 2°56.096 125.5 -999 122 -999
2007-06-12 08:04:36 51°13.598 2°56.096 125.5 -999 147 -999
2007-06-12 08:04:41 51°13.598 2°56.096 125.5 -999 161 -999
2007-06-12 08:04:46 51°13.598 2°56.096 125.5 -999 83 -999
2007-06-12 08:04:51 51°13.598 2°56.096 125.5 -999 116 -999
2007-06-12 08:04:56 51°13.598 2°56.096 125.5 -999 42 -999
2007-06-12 08:05:01 51°13.598 2°56.096 125.5 -999 76 -999
2007-06-12 08:05:06 51°13.598 2°56.096 125.5 -999 318 -999
2007-06-12 08:05:11 51°13.598 2°56.096 125.5 -999 321 -999
2007-06-12 08:05:16 51°13.598 2°56.096 125.5 -999 295 -999
2007-06-12 08:05:21 51°13.598 2°56.096 125.5 -999 77 -999
2007-06-12 08:05:26 51°13.598 2°56.096 125.5 -999 95 -999
2007-06-12 08:05:31 51°13.598 2°56.096 125.5 -999 269 -999
2007-06-12 08:05:36 51°13.598 2°56.096 125.5 -999 234 -999
2007-06-12 08:05:41 51°13.598 2°56.096 125.5 -999 294 -999
2007-06-12 08:05:46 51°13.598 2°56.096 125.5 -999 235 -999
2007-06-12 08:05:51 51°13.598 2°56.096 125.5 -999 293 -999
2007-06-12 08:05:56 51°13.598 2°56.096 125.5 -999 308 -999
2007-06-12 08:06:01 51°13.598 2°56.096 125.5 -999 105 -999
2007-06-12 08:06:06 51°13.598 2°56.096 125.5 -999 282 -999
2007-06-12 08:06:11 51°13.598 2°56.096 125.5 -999 103 -999
2007-06-12 08:06:16 51°13.598 2°56.096 125.5 -999 90 -999
2007-06-12 08:06:21 51°13.598 2°56.096 125.5 -999 122 -999
2007-06-12 08:06:26 51°13.598 2°56.096 125.5 -999 332 -999
2007-06-12 08:06:31 51°13.598 2°56.096 125.5 -999 289 -999
2007-06-12 08:06:36 51°13.598 2°56.096 125.5 -999 313 -999
2007-06-12 08:06:41 51°13.598 2°56.096 125.5 -999 294 -999
2007-06-12 08:06:46 51°13.598 2°56.096 125.5 -999 91 -999
2007-06-12 08:06:51 51°13.598 2°56.096 125.5 -999 282 -999
2007-06-12 08:06:56 51°13.598 2°56.096 125.5 -999 289 -999
2007-06-12 08:07:01 51°13.598 2°56.096 125.5 -999 269 -999
2007-06-12 08:07:06 51°13.598 2°56.096 125.5 -999 140 -999
2007-06-12 08:07:11 51°13.598 2°56.096 125.5 -999 290 -999
2007-06-12 08:07:16 51°13.598 2°56.096 125.5 -999 53 -999
2007-06-12 08:07:21 51°13.598 2°56.096 125.5 -999 317 -999
2007-06-12 08:07:26 51°13.599 2°56.096 125.5 -999 118 -999
2007-06-12 08:07:31 51°13.599 2°56.096 125.5 -999 132 -999
2007-06-12 08:07:36 51°13.599 2°56.096 125.5 -999 124 -999
2007-06-12 08:07:41 51°13.599 2°56.096 125.5 -999 300 -999
2007-06-12 08:07:46 51°13.599 2°56.096 125.5 -999 307 -999
2007-06-12 08:07:51 51°13.599 2°56.096 125.5 -999 229 -999
2007-06-12 08:07:56 51°13.599 2°56.096 125.5 -999 116 -999
2007-06-12 08:08:01 51°13.599 2°56.096 125.5 -999 297 -999
2007-06-12 08:08:06 51°13.599 2°56.096 125.5 -999 114 -999
2007-06-12 08:08:11 51°13.599 2°56.095 125.5 -999 202 -999
2007-06-12 08:08:16 51°13.599 2°56.095 125.5 -999 88 -999
2007-06-12 08:08:21 51°13.598 2°56.095 125.5 -999 172 -999
2007-06-12 08:08:26 51°13.598 2°56.095 125.5 -999 307 -999
2007-06-12 08:08:31 51°13.598 2°56.095 125.5 -999 66 -999
2007-06-12 08:08:36 51°13.598 2°56.095 125.5 -999 293 -999
2007-06-12 08:08:41 51°13.597 2°56.095 125.5 -999 328 -999
2007-06-12 08:08:46 51°13.597 2°56.095 125.5 -999 350 -999
2007-06-12 08:08:51 51°13.597 2°56.095 125.5 -999 99 -999
2007-06-12 08:08:56 51°13.597 2°56.095 125.5 -999 124 -999
2007-06-12 08:09:01 51°13.597 2°56.095 125.5 -999 119 -999
2007-06-12 08:09:06 51°13.597 2°56.095 125.5 -999 128 -999
2007-06-12 08:09:11 51°13.597 2°56.095 125.5 -999 176 -999
2007-06-12 08:09:16 51°13.597 2°56.095 125.5 -999 62 -999
2007-06-12 08:09:21 51°13.597 2°56.095 125.5 -999 253 -999
2007-06-12 08:09:26 51°13.597 2°56.095 125.5 -999 339 -999
2007-06-12 08:09:31 51°13.596 2°56.095 125.5 -999 275 -999
2007-06-12 08:09:36 51°13.596 2°56.095 125.5 -999 101 -999
2007-06-12 08:09:41 51°13.596 2°56.095 125.5 -999 116 -999
2007-06-12 08:09:46 51°13.596 2°56.095 125.5 -999 279 -999
2007-06-12 08:09:51 51°13.596 2°56.095 125.5 -999 50 -999
2007-06-12 08:09:56 51°13.596 2°56.095 125.5 -999 127 -999
2007-06-12 08:10:01 51°13.596 2°56.095 125.5 -999 152 -999
2007-06-12 08:10:06 51°13.596 2°56.095 125.5 -999 51 -999
2007-06-12 08:10:11 51°13.597 2°56.095 125.5 -999 268 -999
2007-06-12 08:10:16 51°13.597 2°56.095 125.5 -999 340 -999
2007-06-12 08:10:21 51°13.598 2°56.095 125.5 -999 80 -999
2007-06-12 08:10:26 51°13.598 2°56.095 125.5 -999 323 -999
2007-06-12 08:10:31 51°13.598 2°56.095 125.5 -999 325 -999
2007-06-12 08:10:36 51°13.597 2°56.096 125.5 -999 91 -999
2007-06-12 08:10:41 51°13.597 2°56.095 125.5 -999 294 -999
2007-06-12 08:10:46 51°13.597 2°56.096 125.5 -999 144 -999
2007-06-12 08:10:51 51°13.597 2°56.096 125.5 -999 173 -999
2007-06-12 08:10:56 51°13.597 2°56.096 125.5 -999 101 -999
2007-06-12 08:11:01 51°13.597 2°56.096 125.5 -999 162 -999
2007-06-12 08:11:06 51°13.597 2°56.095 125.5 -999 266 -999
2007-06-12 08:11:11 51°13.598 2°56.095 125.5 -999 107 -999
2007-06-12 08:11:16 51°13.598 2°56.095 125.5 -999 129 -999
2007-06-12 08:11:21 51°13.599 2°56.095 125.5 -999 125 -999
2007-06-12 08:11:26 51°13.599 2°56.095 125.5 -999 101 -999
2007-06-12 08:11:31 51°13.599 2°56.095 125.5 -999 188 -999
2007-06-12 08:11:36 51°13.599 2°56.095 125.5 -999 295 -999
2007-06-12 08:11:41 51°13.599 2°56.095 125.5 -999 100 -999
2007-06-12 08:11:46 51°13.599 2°56.095 125.5 -999 271 -999
2007-06-12 08:11:51 51°13.599 2°56.095 125.5 -999 108 -999
2007-06-12 08:11:56 51°13.599 2°56.095 125.5 -999 118 -999
2007-06-12 08:12:01 51°13.599 2°56.095 125.5 -999 248 -999
2007-06-12 08:12:06 51°13.6 2°56.095 125.5 -999 315 -999
2007-06-12 08:12:11 51°13.6 2°56.095 125.5 -999 51 -999
2007-06-12 08:12:16 51°13.6 2°56.096 125.5 -999 119 -999
2007-06-12 08:12:21 51°13.6 2°56.096 125.5 -999 124 -999
2007-06-12 08:12:26 51°13.6 2°56.096 125.5 -999 245 -999
2007-06-12 08:12:31 51°13.6 2°56.096 125.5 -999 119 -999
2007-06-12 08:12:36 51°13.6 2°56.095 125.5 -999 109 -999
2007-06-12 08:12:41 51°13.599 2°56.095 125.5 -999 129 -999
2007-06-12 08:12:46 51°13.598 2°56.095 125.5 -999 259 -999
2007-06-12 08:12:51 51°13.598 2°56.095 125.5 -999 33 -999
2007-06-12 08:12:56 51°13.599 2°56.095 125.5 -999 163 -999
2007-06-12 08:13:01 51°13.599 2°56.095 125.5 -999 339 -999
2007-06-12 08:13:06 51°13.599 2°56.095 125.5 -999 265 -999
2007-06-12 08:13:11 51°13.599 2°56.095 125.5 -999 254 -999
2007-06-12 08:13:16 51°13.599 2°56.094 125.5 -999 87 -999
2007-06-12 08:13:21 51°13.599 2°56.094 125.5 -999 99 -999
2007-06-12 08:13:26 51°13.599 2°56.094 125.5 -999 273 -999
2007-06-12 08:13:31 51°13.599 2°56.094 125.5 -999 133 -999
2007-06-12 08:13:36 51°13.599 2°56.094 125.5 -999 297 -999
2007-06-12 08:13:41 51°13.599 2°56.094 125.5 -999 281 -999
2007-06-12 08:13:46 51°13.599 2°56.094 125.5 -999 114 -999
2007-06-12 08:13:51 51°13.6 2°56.094 125.5 -999 131 -999
2007-06-12 08:13:56 51°13.6 2°56.094 125.5 -999 262 -999
2007-06-12 08:14:01 51°13.6 2°56.094 125.5 -999 306 -999
2007-06-12 08:14:06 51°13.6 2°56.094 125.5 -999 58 -999
2007-06-12 08:14:11 51°13.6 2°56.094 125.5 -999 275 -999
2007-06-12 08:14:16 51°13.6 2°56.094 125.5 -999 116 -999
2007-06-12 08:14:21 51°13.6 2°56.094 125.5 -999 5 -999
2007-06-12 08:14:26 51°13.6 2°56.094 125.5 -999 257 -999
2007-06-12 08:14:31 51°13.6 2°56.094 125.5 -999 141 -999
2007-06-12 08:14:36 51°13.6 2°56.094 125.5 -999 20 -999
2007-06-12 08:14:41 51°13.6 2°56.094 125.5 -999 262 -999
2007-06-12 08:14:46 51°13.6 2°56.094 125.5 -999 298 -999
2007-06-12 08:14:51 51°13.6 2°56.094 125.5 -999 254 -999
2007-06-12 08:14:56 51°13.6 2°56.094 125.5 -999 358 -999
2007-06-12 08:15:01 51°13.6 2°56.094 125.5 -999 268 -999
2007-06-12 08:15:06 51°13.6 2°56.094 125.5 -999 95 -999
2007-06-12 08:15:11 51°13.6 2°56.094 125.5 -999 320 -999
2007-06-12 08:15:16 51°13.6 2°56.094 125.5 -999 121 -999
2007-06-12 08:15:21 51°13.6 2°56.094 125.5 -999 85 -999
2007-06-12 08:15:26 51°13.6 2°56.094 125.5 -999 308 -999
2007-06-12 08:15:31 51°13.6 2°56.094 125.5 -999 251 -999
2007-06-12 08:15:36 51°13.6 2°56.094 125.5 -999 133 -999
2007-06-12 08:15:41 51°13.6 2°56.094 125.5 -999 302 -999
2007-06-12 08:15:46 51°13.6 2°56.094 125.5 -999 289 -999
2007-06-12 08:15:51 51°13.6 2°56.094 125.5 -999 305 -999
2007-06-12 08:15:56 51°13.599 2°56.094 125.5 -999 209 -999
2007-06-12 08:16:01 51°13.599 2°56.094 125.5 -999 49 -999
2007-06-12 08:16:06 51°13.599 2°56.094 125.5 -999 152 -999
2007-06-12 08:16:11 51°13.599 2°56.094 125.5 -999 25 -999
2007-06-12 08:16:16 51°13.599 2°56.094 125.5 -999 140 -999
2007-06-12 08:16:21 51°13.599 2°56.094 125.5 -999 137 -999
2007-06-12 08:16:26 51°13.599 2°56.094 125.5 -999 317 -999
2007-06-12 08:16:31 51°13.599 2°56.094 125.5 -999 320 -999
2007-06-12 08:16:36 51°13.599 2°56.094 125.5 -999 316 -999
2007-06-12 08:16:41 51°13.599 2°56.094 125.5 -999 315 -999
2007-06-12 08:16:46 51°13.6 2°56.094 125.5 -999 316 -999
2007-06-12 08:16:51 51°13.599 2°56.094 125.5 -999 140 -999
2007-06-12 08:16:56 51°13.599 2°56.094 125.5 -999 111 -999
2007-06-12 08:17:01 51°13.599 2°56.094 125.5 -999 356 -999
2007-06-12 08:17:06 51°13.599 2°56.094 125.5 -999 132 -999
2007-06-12 08:17:11 51°13.599 2°56.094 125.5 -999 157 -999
2007-06-12 08:17:16 51°13.599 2°56.094 125.5 -999 315 -999
2007-06-12 08:17:21 51°13.599 2°56.094 125.5 -999 280 -999
2007-06-12 08:17:26 51°13.599 2°56.094 125.5 -999 11 -999
2007-06-12 08:17:31 51°13.599 2°56.094 125.5 -999 286 -999
2007-06-12 08:17:36 51°13.599 2°56.094 125.5 -999 165 -999
2007-06-12 08:17:41 51°13.599 2°56.094 125.5 -999 340 -999
2007-06-12 08:17:46 51°13.599 2°56.094 125.5 -999 280 -999
2007-06-12 08:17:51 51°13.599 2°56.094 125.5 -999 311 -999
2007-06-12 08:17:56 51°13.599 2°56.094 125.5 -999 36 -999
2007-06-12 08:18:01 51°13.599 2°56.094 125.5 -999 226 -999
2007-06-12 08:18:06 51°13.599 2°56.094 125.5 -999 2 -999
2007-06-12 08:18:11 51°13.6 2°56.094 125.5 -999 290 -999
2007-06-12 08:18:16 51°13.6 2°56.094 125.5 -999 61 -999
2007-06-12 08:18:21 51°13.601 2°56.094 125.5 -999 285 -999
2007-06-12 08:18:26 51°13.601 2°56.094 125.5 -999 294 -999
2007-06-12 08:18:31 51°13.601 2°56.094 125.5 -999 316 -999
2007-06-12 08:18:36 51°13.601 2°56.094 125.5 -999 209 -999
2007-06-12 08:18:41 51°13.601 2°56.094 125.5 -999 331 -999
2007-06-12 08:18:46 51°13.601 2°56.094 125.5 -999 33 -999
2007-06-12 08:18:51 51°13.601 2°56.094 125.5 -999 6 -999
2007-06-12 08:18:56 51°13.601 2°56.094 125.5 -999 328 -999
2007-06-12 08:19:01 51°13.601 2°56.094 125.5 -999 120 -999
2007-06-12 08:19:06 51°13.601 2°56.094 125.5 -999 131 -999
2007-06-12 08:19:11 51°13.601 2°56.094 125.5 -999 104 -999
2007-06-12 08:19:16 51°13.602 2°56.094 125.5 -999 85 -999
2007-06-12 08:19:21 51°13.602 2°56.094 125.5 -999 323 -999
2007-06-12 08:19:26 51°13.602 2°56.094 125.5 -999 298 -999
2007-06-12 08:19:31 51°13.602 2°56.094 125.5 -999 292 -999
2007-06-12 08:19:36 51°13.602 2°56.094 125.5 -999 306 -999
2007-06-12 08:19:41 51°13.601 2°56.094 125.5 -999 294 -999
2007-06-12 08:19:46 51°13.601 2°56.094 125.5 -999 110 -999
2007-06-12 08:19:51 51°13.601 2°56.094 125.5 -999 138 -999
2007-06-12 08:19:56 51°13.601 2°56.094 125.5 -999 121 -999
2007-06-12 08:20:01 51°13.601 2°56.094 125.5 -999 276 -999
2007-06-12 08:20:06 51°13.601 2°56.094 125.5 -999 320 -999
2007-06-12 08:20:11 51°13.601 2°56.094 125.5 -999 114 -999
2007-06-12 08:20:16 51°13.601 2°56.094 125.5 -999 230 -999
2007-06-12 08:20:21 51°13.601 2°56.094 125.5 -999 29 -999
2007-06-12 08:20:26 51°13.601 2°56.094 125.5 -999 265 -999
2007-06-12 08:20:31 51°13.601 2°56.094 125.5 -999 326 -999
2007-06-12 08:20:36 51°13.601 2°56.094 125.5 -999 244 -999
2007-06-12 08:20:41 51°13.601 2°56.094 125.5 -999 301 -999
2007-06-12 08:20:46 51°13.601 2°56.094 125.5 -999 315 -999
2007-06-12 08:20:51 51°13.601 2°56.094 125.5 -999 93 -999
2007-06-12 08:20:56 51°13.601 2°56.094 125.5 -999 282 -999
2007-06-12 08:21:01 51°13.601 2°56.094 125.5 -999 122 -999
2007-06-12 08:21:06 51°13.601 2°56.094 125.5 -999 356 -999
2007-06-12 08:21:11 51°13.601 2°56.094 125.5 -999 125 -999
2007-06-12 08:21:16 51°13.601 2°56.094 125.5 -999 304 -999
2007-06-12 08:21:21 51°13.601 2°56.094 125.5 -999 353 -999
2007-06-12 08:21:26 51°13.601 2°56.094 125.5 -999 27 -999
2007-06-12 08:21:31 51°13.601 2°56.094 125.5 -999 292 -999
2007-06-12 08:21:36 51°13.601 2°56.094 125.5 -999 296 -999
2007-06-12 08:21:41 51°13.6 2°56.094 125.5 -999 127 -999
2007-06-12 08:21:46 51°13.6 2°56.094 125.5 -999 266 -999
2007-06-12 08:21:51 51°13.6 2°56.094 125.5 -999 253 -999
2007-06-12 08:21:56 51°13.6 2°56.094 125.5 -999 260 -999
2007-06-12 08:22:01 51°13.6 2°56.094 125.5 -999 192 -999
2007-06-12 08:22:06 51°13.6 2°56.094 125.5 -999 219 -999
2007-06-12 08:22:11 51°13.6 2°56.094 125.5 -999 128 -999
2007-06-12 08:22:16 51°13.6 2°56.094 125.5 -999 117 -999
2007-06-12 08:22:21 51°13.599 2°56.094 125.5 -999 44 -999
2007-06-12 08:22:26 51°13.599 2°56.094 125.5 -999 301 -999
2007-06-12 08:22:31 51°13.599 2°56.095 125.5 -999 124 -999
2007-06-12 08:22:36 51°13.599 2°56.095 125.5 -999 291 -999
2007-06-12 08:22:41 51°13.599 2°56.095 125.5 -999 304 -999
2007-06-12 08:22:46 51°13.599 2°56.095 125.5 -999 307 -999
2007-06-12 08:22:51 51°13.599 2°56.095 125.5 -999 305 -999
2007-06-12 08:22:56 51°13.599 2°56.095 125.5 -999 306 -999
2007-06-12 08:23:01 51°13.599 2°56.095 125.5 -999 231 -999
2007-06-12 08:23:06 51°13.599 2°56.095 125.5 -999 295 -999
2007-06-12 08:23:11 51°13.599 2°56.095 125.5 -999 305 -999
2007-06-12 08:23:16 51°13.599 2°56.095 125.5 -999 272 -999
2007-06-12 08:23:21 51°13.598 2°56.095 125.5 -999 97 -999
2007-06-12 08:23:26 51°13.598 2°56.095 125.5 -999 349 -999
2007-06-12 08:23:31 51°13.598 2°56.095 125.5 -999 302 -999
2007-06-12 08:23:36 51°13.598 2°56.095 125.5 -999 86 -999
2007-06-12 08:23:41 51°13.598 2°56.095 125.5 -999 307 -999
2007-06-12 08:23:46 51°13.598 2°56.095 125.5 -999 302 -999
2007-06-12 08:23:51 51°13.598 2°56.095 125.5 -999 120 -999
2007-06-12 08:23:56 51°13.598 2°56.095 125.5 -999 243 -999
2007-06-12 08:24:01 51°13.598 2°56.095 125.5 -999 118 -999
2007-06-12 08:24:06 51°13.598 2°56.095 125.5 -999 136 -999
2007-06-12 08:24:11 51°13.598 2°56.095 125.5 -999 103 -999
2007-06-12 08:24:16 51°13.597 2°56.095 125.5 -999 128 -999
2007-06-12 08:24:21 51°13.597 2°56.095 125.5 -999 143 -999
2007-06-12 08:24:26 51°13.597 2°56.095 125.5 -999 127 -999
2007-06-12 08:24:31 51°13.597 2°56.095 125.5 -999 251 -999
2007-06-12 08:24:36 51°13.597 2°56.095 125.5 -999 122 -999
2007-06-12 08:24:41 51°13.597 2°56.095 125.5 -999 144 -999
2007-06-12 08:24:46 51°13.597 2°56.095 125.5 -999 331 -999
2007-06-12 08:24:51 51°13.597 2°56.095 125.5 -999 304 -999
2007-06-12 08:24:56 51°13.597 2°56.095 125.5 -999 100 -999
2007-06-12 08:25:01 51°13.597 2°56.094 125.5 -999 144 -999
2007-06-12 08:25:06 51°13.597 2°56.095 125.5 -999 122 -999
2007-06-12 08:25:11 51°13.597 2°56.094 125.5 -999 194 -999
2007-06-12 08:25:16 51°13.597 2°56.094 125.5 -999 135 -999
2007-06-12 08:25:21 51°13.597 2°56.094 125.5 -999 252 -999
2007-06-12 08:25:26 51°13.597 2°56.094 125.5 -999 143 -999
2007-06-12 08:25:31 51°13.598 2°56.094 125.5 -999 117 -999
2007-06-12 08:25:36 51°13.598 2°56.094 125.5 -999 166 -999
2007-06-12 08:25:41 51°13.598 2°56.094 125.5 -999 148 -999
2007-06-12 08:25:46 51°13.598 2°56.094 125.5 -999 224 -999
2007-06-12 08:25:51 51°13.598 2°56.094 125.5 -999 318 -999
2007-06-12 08:25:56 51°13.598 2°56.094 125.5 -999 342 -999
2007-06-12 08:26:01 51°13.598 2°56.094 125.5 -999 263 -999
2007-06-12 08:26:06 51°13.598 2°56.094 125.5 -999 165 -999
2007-06-12 08:26:11 51°13.598 2°56.094 125.5 -999 301 -999
2007-06-12 08:26:16 51°13.598 2°56.094 125.5 -999 14 -999
2007-06-12 08:26:21 51°13.598 2°56.094 125.5 -999 315 -999
2007-06-12 08:26:26 51°13.598 2°56.094 125.5 -999 304 -999
2007-06-12 08:26:31 51°13.598 2°56.094 125.5 -999 38 -999
2007-06-12 08:26:36 51°13.598 2°56.094 125.5 -999 321 -999
2007-06-12 08:26:41 51°13.598 2°56.094 125.5 -999 123 -999
2007-06-12 08:26:46 51°13.598 2°56.094 125.5 -999 310 -999
2007-06-12 08:26:51 51°13.598 2°56.094 125.5 -999 340 -999
2007-06-12 08:26:56 51°13.598 2°56.094 125.5 -999 84 -999
2007-06-12 08:27:01 51°13.598 2°56.094 125.5 -999 302 -999
2007-06-12 08:27:06 51°13.598 2°56.094 125.5 -999 75 -999
2007-06-12 08:27:11 51°13.598 2°56.094 125.5 -999 210 -999
2007-06-12 08:27:16 51°13.598 2°56.094 125.5 -999 1 -999
2007-06-12 08:27:21 51°13.598 2°56.094 125.5 -999 303 -999
2007-06-12 08:27:26 51°13.598 2°56.094 125.5 -999 98 -999
2007-06-12 08:27:31 51°13.598 2°56.094 125.5 -999 161 -999
2007-06-12 08:27:36 51°13.598 2°56.094 125.5 -999 1 -999
2007-06-12 08:27:41 51°13.598 2°56.094 125.5 -999 26 -999
2007-06-12 08:27:46 51°13.598 2°56.094 125.5 -999 136 -999
2007-06-12 08:27:51 51°13.598 2°56.094 125.5 -999 300 -999
2007-06-12 08:27:56 51°13.598 2°56.094 125.5 -999 180 -999
2007-06-12 08:28:01 51°13.599 2°56.094 125.5 -999 306 -999
2007-06-12 08:28:06 51°13.599 2°56.094 125.5 -999 281 -999
2007-06-12 08:28:11 51°13.599 2°56.094 125.5 -999 259 -999
2007-06-12 08:28:16 51°13.599 2°56.094 125.5 -999 307 -999
2007-06-12 08:28:21 51°13.598 2°56.094 125.5 -999 161 -999
2007-06-12 08:28:26 51°13.598 2°56.094 125.5 -999 151 -999
2007-06-12 08:28:31 51°13.598 2°56.094 125.5 -999 308 -999
2007-06-12 08:28:36 51°13.598 2°56.094 125.5 -999 315 -999
2007-06-12 08:28:41 51°13.598 2°56.094 125.5 -999 91 -999
2007-06-12 08:28:46 51°13.598 2°56.094 125.5 -999 200 -999
2007-06-12 08:28:51 51°13.598 2°56.094 125.5 -999 340 -999
2007-06-12 08:28:56 51°13.598 2°56.094 125.5 -999 275 -999
2007-06-12 08:29:01 51°13.598 2°56.094 125.5 -999 176 -999
2007-06-12 08:29:06 51°13.598 2°56.094 125.5 -999 148 -999
2007-06-12 08:29:11 51°13.598 2°56.094 125.5 -999 323 -999
2007-06-12 08:29:16 51°13.598 2°56.094 125.5 -999 297 -999
2007-06-12 08:29:21 51°13.598 2°56.094 125.5 -999 172 -999
2007-06-12 08:29:26 51°13.597 2°56.094 125.5 -999 111 -999
2007-06-12 08:29:31 51°13.597 2°56.094 125.5 -999 256 -999
2007-06-12 08:29:36 51°13.597 2°56.094 125.5 -999 126 -999
2007-06-12 08:29:41 51°13.597 2°56.094 125.5 -999 131 -999
2007-06-12 08:29:46 51°13.597 2°56.094 125.5 -999 184 -999
2007-06-12 08:29:51 51°13.597 2°56.094 125.5 -999 127 -999
2007-06-12 08:29:56 51°13.597 2°56.094 125.5 -999 337 -999
2007-06-12 08:30:01 51°13.597 2°56.094 125.5 -999 112 -999
2007-06-12 08:30:06 51°13.597 2°56.094 125.6 -999 137 -999
2007-06-12 08:30:11 51°13.597 2°56.094 125.5 -999 131 -999
2007-06-12 08:30:16 51°13.597 2°56.094 125.5 -999 208 -999
2007-06-12 08:30:21 51°13.597 2°56.094 125.5 -999 193 -999
2007-06-12 08:30:26 51°13.597 2°56.094 125.5 -999 244 -999
2007-06-12 08:30:31 51°13.597 2°56.094 125.5 -999 280 -999
2007-06-12 08:30:36 51°13.597 2°56.094 125.5 -999 286 -999
2007-06-12 08:30:41 51°13.597 2°56.094 125.5 -999 332 -999
2007-06-12 08:30:46 51°13.597 2°56.094 125.5 -999 307 -999
2007-06-12 08:30:51 51°13.597 2°56.094 125.5 -999 253 -999
2007-06-12 08:30:56 51°13.597 2°56.094 125.5 -999 265 -999
2007-06-12 08:31:01 51°13.597 2°56.094 125.5 -999 12 -999
2007-06-12 08:31:06 51°13.597 2°56.094 125.5 -999 135 -999
2007-06-12 08:31:11 51°13.597 2°56.094 125.5 -999 123 -999
2007-06-12 08:31:16 51°13.597 2°56.094 125.5 -999 95 -999
2007-06-12 08:31:21 51°13.597 2°56.094 125.5 -999 155 -999
2007-06-12 08:31:26 51°13.597 2°56.094 125.5 -999 324 -999
2007-06-12 08:31:31 51°13.597 2°56.094 125.5 -999 12 -999
2007-06-12 08:31:36 51°13.597 2°56.094 125.5 -999 302 -999
2007-06-12 08:31:41 51°13.597 2°56.093 125.5 -999 192 -999